createdAt,value
2019-04-29T00:02:30.237Z,0.50
2019-04-29T00:04:58.309Z,0.60
2019-04-29T00:07:26.579Z,0.40
2019-04-29T00:09:54.736Z,0.50
2019-04-29T00:12:23.122Z,0.42
2019-04-29T00:15:05.154Z,0.40
2019-04-29T00:17:35.014Z,0.40
2019-04-29T00:20:06.174Z,0.30
2019-04-29T00:22:34.308Z,0.42
2019-04-29T00:25:02.926Z,0.40
2019-04-29T00:27:31.415Z,0.40
2019-04-29T00:29:59.615Z,0.30
2019-04-29T00:32:27.798Z,0.40
2019-04-29T00:34:55.969Z,0.35
2019-04-29T00:37:28.541Z,0.40
2019-04-29T00:40:04.603Z,0.33
2019-04-29T00:42:51.324Z,0.37
2019-04-29T00:45:19.629Z,0.40
2019-04-29T00:47:47.753Z,0.40
2019-04-29T00:50:15.906Z,0.40
2019-04-29T00:52:43.978Z,0.40
2019-04-29T00:55:16.614Z,0.40
2019-04-29T00:57:44.648Z,0.55
2019-04-29T01:00:14.727Z,0.30
2019-04-29T01:02:42.802Z,0.40
2019-04-29T01:05:10.953Z,0.53
2019-04-29T01:07:39.049Z,0.40
2019-04-29T01:10:07.453Z,0.28
2019-04-29T01:12:36.603Z,0.30
2019-04-29T01:15:05.951Z,0.20
2019-04-29T01:17:34.093Z,0.35
2019-04-29T01:20:02.170Z,0.40
2019-04-29T01:22:31.501Z,0.40
2019-04-29T01:24:59.638Z,0.30
2019-04-29T01:27:29.382Z,0.28
2019-04-29T01:29:57.452Z,0.40
2019-04-29T01:32:25.532Z,0.45
2019-04-29T01:34:54.811Z,0.50
2019-04-29T01:37:25.506Z,0.50
2019-04-29T01:40:13.656Z,0.40
2019-04-29T01:42:43.393Z,0.50
2019-04-29T01:45:11.521Z,0.37
2019-04-29T01:47:39.615Z,0.50
2019-04-29T01:50:07.682Z,0.50
2019-04-29T01:52:35.837Z,0.60
2019-04-29T01:55:04.338Z,0.50
2019-04-29T01:57:32.413Z,0.35
2019-04-29T02:00:00.506Z,0.40
2019-04-29T02:02:30.198Z,0.42
2019-04-29T02:04:58.286Z,0.33
2019-04-29T02:07:26.334Z,0.30
2019-04-29T02:09:58.759Z,0.50
2019-04-29T02:12:26.819Z,0.33
2019-04-29T02:14:54.910Z,0.30
2019-04-29T02:17:24.226Z,0.50
2019-04-29T02:19:52.322Z,0.42
2019-04-29T02:22:33.706Z,0.50
2019-04-29T02:25:09.179Z,0.42
2019-04-29T02:27:37.249Z,0.37
2019-04-29T02:30:06.605Z,0.45
2019-04-29T02:32:34.730Z,0.50
2019-04-29T02:35:02.846Z,0.40
2019-04-29T02:37:32.563Z,0.60
2019-04-29T02:40:05.031Z,0.50
2019-04-29T02:42:47.000Z,0.50
2019-04-29T02:45:19.467Z,0.40
2019-04-29T02:47:47.531Z,0.40
2019-04-29T02:50:16.896Z,0.55
2019-04-29T02:52:44.967Z,0.50
2019-04-29T02:55:14.820Z,0.57
2019-04-29T02:57:53.643Z,0.47
2019-04-29T03:00:38.665Z,0.50
2019-04-29T03:03:11.113Z,0.70
2019-04-29T03:05:40.962Z,0.60
2019-04-29T03:08:09.019Z,0.40
2019-04-29T03:10:37.169Z,0.53
2019-04-29T03:13:05.334Z,0.60
2019-04-29T03:15:34.647Z,0.40
2019-04-29T03:18:02.879Z,0.50
2019-04-29T03:20:49.266Z,0.50
2019-04-29T03:23:19.424Z,0.60
2019-04-29T03:25:47.971Z,0.50
2019-04-29T03:28:16.120Z,0.47
2019-04-29T03:30:44.231Z,0.45
2019-04-29T03:33:12.412Z,0.55
2019-04-29T03:35:40.526Z,0.60
2019-04-29T03:38:08.679Z,0.55
2019-04-29T03:40:37.957Z,0.70
2019-04-29T03:43:06.077Z,0.60
2019-04-29T03:45:34.158Z,0.78
2019-04-29T03:48:02.354Z,0.72
2019-04-29T03:50:30.520Z,0.60
2019-04-29T03:52:58.645Z,0.60
2019-04-29T03:55:39.049Z,0.50
2019-04-29T03:57:56.456Z,0.72
2019-04-29T04:00:24.655Z,0.70
2019-04-29T04:02:54.412Z,0.60
2019-04-29T04:05:24.112Z,0.70
2019-04-29T04:08:08.927Z,0.60
2019-04-29T04:10:38.455Z,0.65
2019-04-29T04:13:06.519Z,0.60
2019-04-29T04:15:34.661Z,0.68
2019-04-29T04:18:04.411Z,0.60
2019-04-29T04:20:32.496Z,0.93
2019-04-29T04:23:00.590Z,0.65
2019-04-29T04:25:28.687Z,0.90
2019-04-29T04:27:56.835Z,0.90
2019-04-29T04:30:24.895Z,0.80
2019-04-29T04:32:53.038Z,0.57
2019-04-29T04:35:21.540Z,0.60
2019-04-29T04:37:49.847Z,0.80
2019-04-29T04:40:19.709Z,0.62
2019-04-29T04:42:47.792Z,0.80
2019-04-29T04:45:16.005Z,1.00
2019-04-29T04:47:44.207Z,0.60
2019-04-29T04:50:12.385Z,0.82
2019-04-29T04:52:40.494Z,0.80
2019-04-29T04:55:08.913Z,0.60
2019-04-29T04:57:37.991Z,0.68
2019-04-29T05:00:09.314Z,0.60
2019-04-29T05:02:37.372Z,0.72
2019-04-29T05:05:05.892Z,0.75
2019-04-29T05:07:34.096Z,0.80
2019-04-29T05:10:02.192Z,0.68
2019-04-29T05:12:30.689Z,0.70
2019-04-29T05:14:59.930Z,0.80
2019-04-29T05:17:28.079Z,0.70
2019-04-29T05:19:56.224Z,0.80
2019-04-29T05:22:24.451Z,0.88
2019-04-29T05:24:52.624Z,1.10
2019-04-29T05:27:20.723Z,1.05
2019-04-29T05:29:48.919Z,0.70
2019-04-29T05:32:17.149Z,0.70
2019-04-29T05:34:48.214Z,0.90
2019-04-29T05:37:20.772Z,0.60
2019-04-29T05:39:48.838Z,0.78
2019-04-29T05:42:17.330Z,0.70
2019-04-29T05:44:50.324Z,0.70
2019-04-29T05:47:35.222Z,0.57
2019-04-29T05:50:16.934Z,0.88
2019-04-29T05:53:02.392Z,0.78
2019-04-29T05:55:30.461Z,0.80
2019-04-29T05:58:13.636Z,0.93
2019-04-29T06:00:44.010Z,0.70
2019-04-29T06:03:12.186Z,0.80
2019-04-29T06:05:40.263Z,0.57
2019-04-29T06:08:08.418Z,0.75
2019-04-29T06:10:36.482Z,1.07
2019-04-29T06:13:04.648Z,0.90
2019-04-29T06:15:32.714Z,0.75
2019-04-29T06:18:01.155Z,0.60
2019-04-29T06:20:29.235Z,0.70
2019-04-29T06:22:57.412Z,0.70
2019-04-29T06:25:25.517Z,0.80
2019-04-29T06:27:55.100Z,0.80
2019-04-29T06:30:23.321Z,0.88
2019-04-29T06:32:51.390Z,1.12
2019-04-29T06:35:20.610Z,0.95
2019-04-29T06:37:48.820Z,1.10
2019-04-29T06:40:16.966Z,0.75
2019-04-29T06:42:45.035Z,1.10
2019-04-29T06:45:13.109Z,1.27
2019-04-29T06:47:41.287Z,0.70
2019-04-29T06:50:09.683Z,0.93
2019-04-29T06:52:37.729Z,0.85
2019-04-29T06:55:05.976Z,1.07
2019-04-29T06:57:34.417Z,1.30
2019-04-29T07:00:02.765Z,1.05
2019-04-29T07:02:31.196Z,1.17
2019-04-29T07:04:59.292Z,1.07
2019-04-29T07:07:27.348Z,0.93
2019-04-29T07:09:56.916Z,0.70
2019-04-29T07:12:25.247Z,0.90
2019-04-29T07:14:53.331Z,1.05
2019-04-29T07:17:21.467Z,0.93
2019-04-29T07:19:49.599Z,0.80
2019-04-29T07:22:20.916Z,0.78
2019-04-29T07:24:47.483Z,0.80
2019-04-29T07:27:15.624Z,0.90
2019-04-29T07:29:43.658Z,0.80
2019-04-29T07:32:11.778Z,0.80
2019-04-29T07:34:39.854Z,0.70
2019-04-29T07:37:07.971Z,0.78
2019-04-29T07:39:36.050Z,0.60
2019-04-29T07:42:04.263Z,0.90
2019-04-29T07:44:43.770Z,0.70
2019-04-29T07:47:04.891Z,0.50
2019-04-29T07:49:33.030Z,0.40
2019-04-29T07:52:01.110Z,0.45
2019-04-29T07:54:30.293Z,0.70
2019-04-29T07:56:58.373Z,0.60
2019-04-29T07:59:26.756Z,0.40
2019-04-29T08:01:55.579Z,0.42
2019-04-29T08:04:24.612Z,0.50
2019-04-29T08:06:53.250Z,0.45
2019-04-29T08:09:21.482Z,0.40
2019-04-29T08:11:49.733Z,0.47
2019-04-29T08:14:18.355Z,0.40
2019-04-29T08:16:46.415Z,0.62
2019-04-29T08:19:14.498Z,0.70
2019-04-29T08:21:45.585Z,0.70
2019-04-29T08:24:15.930Z,0.50
2019-04-29T08:26:47.515Z,0.65
2019-04-29T08:29:11.846Z,0.60
2019-04-29T08:31:39.964Z,0.45
2019-04-29T08:34:08.059Z,0.55
2019-04-29T08:36:36.188Z,0.55
2019-04-29T08:39:08.647Z,0.40
2019-04-29T08:41:36.962Z,0.50
2019-04-29T08:44:16.151Z,0.70
2019-04-29T08:46:39.190Z,0.45
2019-04-29T08:49:07.768Z,0.55
2019-04-29T08:51:36.038Z,0.60
2019-04-29T08:54:05.643Z,0.60
2019-04-29T08:56:33.727Z,0.50
2019-04-29T08:59:01.870Z,0.40
2019-04-29T09:01:34.021Z,0.70
2019-04-29T09:03:59.786Z,0.70
2019-04-29T09:06:32.559Z,0.60
2019-04-29T09:08:59.677Z,0.60
2019-04-29T09:11:27.643Z,0.80
2019-04-29T09:13:56.085Z,0.60
2019-04-29T09:16:24.172Z,0.55
2019-04-29T09:18:52.258Z,0.47
2019-04-29T09:21:21.496Z,0.50
2019-04-29T09:23:49.557Z,0.40
2019-04-29T09:26:30.488Z,0.72
2019-04-29T09:29:03.889Z,0.70
2019-04-29T09:31:29.951Z,0.50
2019-04-29T09:34:06.532Z,0.80
2019-04-29T09:36:28.862Z,0.60
2019-04-29T09:39:02.533Z,0.60
2019-04-29T09:41:45.872Z,0.60
2019-04-29T09:44:30.601Z,0.50
2019-04-29T09:46:58.658Z,0.70
2019-04-29T09:49:26.754Z,0.60
2019-04-29T09:51:54.825Z,0.60
2019-04-29T09:54:23.220Z,0.50
2019-04-29T09:56:51.344Z,0.50
2019-04-29T09:59:23.823Z,0.40
2019-04-29T10:01:57.277Z,0.78
2019-04-29T10:04:27.035Z,0.50
2019-04-29T10:06:56.801Z,0.80
2019-04-29T10:09:24.966Z,0.83
2019-04-29T10:11:53.164Z,0.72
2019-04-29T10:14:21.256Z,0.70
2019-04-29T10:16:56.581Z,0.65
2019-04-29T10:19:31.828Z,0.70
2019-04-29T10:22:00.338Z,0.68
2019-04-29T10:24:28.388Z,0.70
2019-04-29T10:26:56.544Z,0.72
2019-04-29T10:29:26.355Z,0.60
2019-04-29T10:31:54.492Z,0.53
2019-04-29T10:34:27.023Z,0.60
2019-04-29T10:36:53.792Z,0.90
2019-04-29T10:39:26.671Z,0.60
2019-04-29T10:41:55.294Z,0.75
2019-04-29T10:44:28.116Z,1.00
2019-04-29T10:47:10.239Z,0.90
2019-04-29T10:49:40.389Z,0.70
2019-04-29T10:52:08.677Z,0.72
2019-04-29T10:54:36.775Z,0.70
2019-04-29T10:57:04.945Z,0.80
2019-04-29T10:59:36.270Z,0.80
2019-04-29T11:02:26.882Z,0.82
2019-04-29T11:05:02.499Z,0.55
2019-04-29T11:07:37.153Z,0.90
2019-04-29T11:10:25.303Z,0.80
2019-04-29T11:12:49.437Z,0.88
2019-04-29T11:15:19.419Z,0.70
2019-04-29T11:17:47.514Z,1.00
2019-04-29T11:20:21.163Z,0.80
2019-04-29T11:22:57.606Z,0.90
2019-04-29T11:25:27.344Z,0.80
2019-04-29T11:27:57.210Z,0.62
2019-04-29T11:30:27.025Z,0.80
2019-04-29T11:32:59.961Z,0.80
2019-04-29T11:35:29.624Z,0.60
2019-04-29T11:37:59.998Z,0.50
2019-04-29T11:40:42.748Z,0.70
2019-04-29T11:42:57.639Z,0.80
2019-04-29T11:45:25.692Z,0.72
2019-04-29T11:47:53.771Z,0.82
2019-04-29T11:50:27.065Z,0.70
2019-04-29T11:52:55.727Z,0.80
2019-04-29T11:55:23.922Z,0.68
2019-04-29T11:57:59.407Z,0.60
2019-04-29T12:00:29.126Z,0.70
2019-04-29T12:02:58.869Z,0.50
2019-04-29T12:05:28.756Z,0.70
2019-04-29T12:07:56.851Z,0.60
2019-04-29T12:10:24.966Z,0.70
2019-04-29T12:12:53.115Z,0.70
2019-04-29T12:15:25.895Z,0.57
2019-04-29T12:17:56.774Z,0.70
2019-04-29T12:20:38.562Z,0.70
2019-04-29T12:23:06.641Z,0.50
2019-04-29T12:25:36.445Z,0.60
2019-04-29T12:28:18.831Z,0.50
2019-04-29T12:30:36.539Z,0.53
2019-04-29T12:33:12.562Z,0.40
2019-04-29T12:35:51.574Z,0.70
2019-04-29T12:38:13.805Z,0.80
2019-04-29T12:41:01.559Z,0.50
2019-04-29T12:43:43.568Z,0.70
2019-04-29T12:46:13.368Z,0.60
2019-04-29T12:48:41.624Z,0.55
2019-04-29T12:51:09.849Z,0.50
2019-04-29T12:53:38.024Z,0.60
2019-04-29T12:56:07.275Z,0.60
2019-04-29T12:58:36.109Z,0.37
2019-04-29T13:01:06.160Z,0.55
2019-04-29T13:06:38.783Z,0.50
2019-04-29T13:09:01.489Z,0.60
2019-04-29T13:11:40.880Z,0.47
2019-04-29T13:14:01.894Z,0.30
2019-04-29T13:16:31.337Z,0.63
2019-04-29T13:19:11.593Z,0.50
2019-04-29T13:21:33.832Z,0.40
2019-04-29T13:24:13.780Z,0.53
2019-04-29T13:26:33.186Z,0.60
2019-04-29T13:29:01.854Z,0.50
2019-04-29T13:31:37.965Z,0.50
2019-04-29T13:34:14.709Z,0.40
2019-04-29T13:36:31.579Z,0.40
2019-04-29T13:38:59.737Z,0.40
2019-04-29T13:41:27.858Z,0.40
2019-04-29T13:44:04.431Z,0.50
2019-04-29T13:46:46.154Z,0.37
2019-04-29T13:49:19.700Z,0.40
2019-04-29T13:51:52.392Z,0.40
2019-04-29T13:54:20.510Z,0.30
2019-04-29T13:56:56.010Z,0.30
2019-04-29T13:59:23.394Z,0.47
2019-04-29T14:02:09.682Z,0.50
2019-04-29T14:04:42.186Z,0.40
2019-04-29T14:07:13.958Z,0.60
2019-04-29T14:09:40.560Z,0.70
2019-04-29T14:12:46.408Z,0.55
2019-04-29T14:14:38.728Z,0.50
2019-04-29T14:17:25.203Z,0.42
2019-04-29T14:19:42.579Z,0.40
2019-04-29T14:22:21.423Z,0.30
2019-04-29T14:24:38.031Z,0.40
2019-04-29T14:27:06.583Z,0.50
2019-04-29T14:29:34.809Z,0.50
2019-04-29T14:32:03.023Z,0.68
2019-04-29T14:34:36.733Z,0.50
2019-04-29T14:37:19.852Z,0.50
2019-04-29T14:39:37.018Z,0.40
2019-04-29T14:42:25.681Z,0.40
2019-04-29T14:44:57.436Z,0.40
2019-04-29T14:47:30.185Z,0.30
2019-04-29T14:50:10.810Z,0.50
2019-04-29T14:52:36.536Z,0.50
2019-04-29T14:55:06.178Z,0.70
2019-04-29T14:57:34.272Z,0.50
2019-04-29T15:00:02.607Z,0.33
2019-04-29T15:02:32.435Z,0.50
2019-04-29T15:05:00.718Z,0.80
2019-04-29T15:07:30.619Z,0.70
2019-04-29T15:09:58.953Z,0.82
2019-04-29T15:12:32.381Z,0.60
2019-04-29T15:15:02.121Z,0.57
2019-04-29T15:17:49.745Z,0.47
2019-04-29T15:20:25.431Z,1.00
2019-04-29T15:22:53.420Z,0.60
2019-04-29T15:25:22.565Z,0.70
2019-04-29T15:27:50.802Z,0.53
2019-04-29T15:30:18.970Z,0.80
2019-04-29T15:32:47.048Z,0.80
2019-04-29T15:35:15.217Z,0.90
2019-04-29T15:37:43.342Z,0.90
2019-04-29T15:40:11.743Z,0.53
2019-04-29T15:42:43.223Z,0.90
2019-04-29T15:45:10.044Z,0.63
2019-04-29T15:47:41.508Z,0.70
2019-04-29T15:50:18.323Z,0.60
2019-04-29T15:52:37.832Z,0.80
2019-04-29T15:55:06.194Z,0.65
2019-04-29T15:57:34.436Z,0.80
2019-04-29T16:00:20.803Z,0.72
2019-04-29T16:02:35.879Z,0.90
2019-04-29T16:05:14.833Z,0.80
2019-04-29T16:10:33.100Z,0.90
2019-04-29T16:13:02.894Z,1.00
2019-04-29T16:15:31.027Z,0.80
2019-04-29T16:17:59.424Z,0.93
2019-04-29T16:20:27.562Z,0.90
2019-04-29T16:23:00.669Z,0.93
2019-04-29T16:25:25.441Z,0.90
2019-04-29T16:27:54.600Z,0.80
2019-04-29T16:30:26.154Z,1.10
2019-04-29T16:32:53.255Z,0.90
2019-04-29T16:35:23.646Z,0.70
2019-04-29T16:37:51.456Z,0.83
2019-04-29T16:40:19.843Z,0.78
2019-04-29T16:43:06.052Z,0.80
2019-04-29T16:45:38.550Z,1.00
2019-04-29T16:48:06.662Z,0.98
2019-04-29T16:50:34.781Z,1.00
2019-04-29T16:53:02.884Z,1.10
2019-04-29T16:55:35.832Z,1.00
2019-04-29T16:58:07.704Z,1.07
2019-04-29T17:00:32.115Z,1.10
2019-04-29T17:03:00.267Z,0.80
2019-04-29T17:05:29.469Z,0.85
2019-04-29T17:07:57.579Z,1.10
2019-04-29T17:10:33.234Z,0.90
2019-04-29T17:13:01.329Z,1.00
2019-04-29T17:15:29.782Z,1.20
2019-04-29T17:17:57.888Z,0.98
2019-04-29T17:20:26.022Z,0.98
2019-04-29T17:22:54.176Z,0.90
2019-04-29T17:25:22.914Z,1.20
2019-04-29T17:28:12.090Z,0.90
2019-04-29T17:30:48.597Z,1.30
2019-04-29T17:33:26.398Z,1.10
2019-04-29T17:35:13.989Z,0.80
2019-04-29T17:35:49.654Z,1.05
2019-04-29T17:38:17.709Z,0.90
2019-04-29T17:40:51.082Z,1.20
2019-04-29T17:43:20.570Z,1.10
2019-04-29T17:46:06.888Z,1.50
2019-04-29T17:48:39.317Z,1.07
2019-04-29T17:51:08.795Z,1.10
2019-04-29T17:53:41.631Z,1.40
2019-04-29T17:56:20.198Z,1.30
2019-04-29T17:58:56.442Z,1.07
2019-04-29T18:01:36.603Z,1.20
2019-04-29T18:04:19.976Z,1.22
2019-04-29T18:06:51.017Z,1.05
2019-04-29T18:09:37.314Z,0.95
2019-04-29T18:12:07.686Z,0.88
2019-04-29T18:14:40.320Z,1.20
2019-04-29T18:17:06.759Z,1.30
2019-04-29T18:19:55.406Z,1.45
2019-04-29T18:22:31.096Z,1.25
2019-04-29T18:25:17.113Z,1.50
2019-04-29T18:27:49.006Z,1.00
2019-04-29T18:30:19.498Z,1.10
2019-04-29T18:32:47.775Z,1.32
2019-04-29T18:35:17.066Z,1.40
2019-04-29T18:37:45.719Z,1.30
2019-04-29T18:40:16.099Z,1.35
2019-04-29T18:42:46.872Z,1.75
2019-04-29T18:45:15.674Z,1.57
2019-04-29T18:47:43.973Z,1.42
2019-04-29T18:50:12.708Z,1.35
2019-04-29T18:52:40.929Z,1.57
2019-04-29T18:55:09.101Z,1.20
2019-04-29T18:57:37.221Z,1.45
2019-04-29T19:00:11.749Z,1.42
2019-04-29T19:05:07.438Z,1.32
2019-04-29T19:07:37.288Z,1.40
2019-04-29T19:10:07.600Z,1.30
2019-04-29T19:12:39.116Z,1.42
2019-04-29T19:15:11.480Z,1.90
2019-04-29T19:17:39.779Z,1.82
2019-04-29T19:20:08.498Z,1.60
2019-04-29T19:22:39.926Z,1.65
2019-04-29T19:25:10.451Z,1.62
2019-04-29T19:27:39.770Z,1.50
2019-04-29T19:30:08.518Z,1.83
2019-04-29T19:32:37.127Z,1.65
2019-04-29T19:35:05.992Z,1.80
2019-04-29T19:37:37.409Z,2.08
2019-04-29T19:40:05.192Z,2.08
2019-04-29T19:42:39.455Z,1.72
2019-04-29T19:45:06.273Z,1.70
2019-04-29T19:47:36.175Z,1.60
2019-04-29T19:50:10.303Z,1.42
2019-04-29T19:52:37.606Z,1.98
2019-04-29T19:55:06.141Z,1.80
2019-04-29T19:57:37.885Z,1.50
2019-04-29T20:00:06.745Z,1.50
2019-04-29T20:02:36.659Z,1.57
2019-04-29T20:05:11.811Z,1.85
2019-04-29T20:07:42.156Z,1.67
2019-04-29T20:10:11.647Z,1.40
2019-04-29T20:12:40.374Z,1.77
2019-04-29T20:15:09.372Z,1.47
2019-04-29T20:17:45.753Z,1.80
2019-04-29T20:20:22.720Z,1.57
2019-04-29T20:22:51.432Z,1.40
2019-04-29T20:25:29.317Z,1.50
2019-04-29T20:27:49.829Z,1.60
2019-04-29T20:30:20.865Z,1.60
2019-04-29T20:32:48.043Z,1.67
2019-04-29T20:35:18.243Z,1.62
2019-04-29T20:37:47.720Z,1.40
2019-04-29T20:40:16.725Z,1.53
2019-04-29T20:42:48.825Z,1.52
2019-04-29T20:45:15.465Z,1.53
2019-04-29T20:47:45.436Z,1.67
2019-04-29T20:50:14.227Z,1.40
2019-04-29T20:52:56.404Z,1.60
2019-04-29T20:55:21.926Z,1.62
2019-04-29T20:57:52.477Z,1.65
2019-04-29T21:00:24.780Z,1.45
2019-04-29T21:02:50.428Z,1.50
2019-04-29T21:05:23.292Z,1.65
2019-04-29T21:07:49.204Z,1.50
2019-04-29T21:10:17.757Z,1.37
2019-04-29T21:12:47.616Z,1.50
2019-04-29T21:15:31.784Z,1.27
2019-04-29T21:17:59.876Z,1.40
2019-04-29T21:20:28.032Z,1.60
2019-04-29T21:22:59.324Z,1.40
2019-04-29T21:25:29.531Z,1.43
2019-04-29T21:28:00.698Z,1.60
2019-04-29T21:30:35.023Z,1.37
2019-04-29T21:32:55.857Z,1.45
2019-04-29T21:35:40.967Z,1.62
2019-04-29T21:38:17.903Z,1.47
2019-04-29T21:40:48.258Z,1.40
2019-04-29T21:43:18.027Z,1.60
2019-04-29T21:45:48.568Z,1.47
2019-04-29T21:48:17.131Z,1.50
2019-04-29T21:50:45.218Z,1.20
2019-04-29T21:53:15.101Z,1.20
2019-04-29T21:55:43.311Z,1.25
2019-04-29T21:58:11.443Z,1.37
2019-04-29T22:00:39.781Z,1.22
2019-04-29T22:03:09.495Z,1.20
2019-04-29T22:05:37.564Z,1.52
2019-04-29T22:08:05.623Z,1.42
2019-04-29T22:10:35.097Z,1.25
2019-04-29T22:13:05.053Z,1.50
2019-04-29T22:15:39.042Z,1.47
2019-04-29T22:18:07.297Z,1.32
2019-04-29T22:20:35.604Z,1.40
2019-04-29T22:23:08.377Z,1.47
2019-04-29T22:25:32.700Z,1.47
2019-04-29T22:28:00.782Z,1.52
2019-04-29T22:30:28.986Z,1.37
2019-04-29T22:32:58.726Z,1.47
2019-04-29T22:35:27.706Z,1.30
2019-04-29T22:37:56.184Z,1.30
2019-04-29T22:40:25.353Z,1.45
2019-04-29T22:43:10.274Z,1.47
2019-04-29T22:45:38.159Z,1.40
2019-04-29T22:48:14.909Z,1.30
2019-04-29T22:50:38.126Z,1.42
2019-04-29T22:53:08.856Z,1.40
2019-04-29T22:55:38.765Z,1.50
2019-04-29T22:58:09.644Z,1.40
2019-04-29T23:00:36.261Z,1.50
2019-04-29T23:03:04.557Z,1.30
2019-04-29T23:05:32.718Z,1.20
2019-04-29T23:08:00.772Z,1.35
2019-04-29T23:10:28.942Z,1.32
2019-04-29T23:12:57.596Z,1.25
2019-04-29T23:15:26.821Z,1.13
2019-04-29T23:17:54.917Z,1.37
2019-04-29T23:20:28.843Z,1.10
2019-04-29T23:23:05.281Z,1.17
2019-04-29T23:25:42.119Z,1.22
2019-04-29T23:28:10.204Z,1.40
2019-04-29T23:30:39.227Z,1.27
2019-04-29T23:33:07.294Z,1.20
2019-04-29T23:35:39.703Z,1.35
2019-04-29T23:38:09.190Z,1.23
2019-04-29T23:40:34.876Z,1.17
2019-04-29T23:43:02.979Z,1.02
2019-04-29T23:45:31.243Z,0.98
2019-04-29T23:47:59.396Z,0.90
2019-04-29T23:50:28.192Z,1.17
2019-04-29T23:52:56.398Z,1.10
2019-04-29T23:55:27.424Z,0.98
2019-04-29T23:58:02.688Z,1.20
